Time;durP1;ratioP1;P1;durP2;ratioP2;P2;SDS_P1;SDS_P2;PMS_P1;PMS_P2;Temp;Humidity;BMP_temperature;BMP_pressure;BME280_temperature;BME280_humidity;BME280_pressure;Samples;Min_cycle;Max_cycle;Signal;HPM_P1;HPM_P2
2024/01/15 00:02:22;;;;;;;29.38;13.35;;;-0.70;99.90;;;;;;5017299;28;20254;-57
2024/01/15 00:04:50;;;;;;;25.92;12.07;;;-0.70;99.90;;;;;;5021608;28;20203;-57
2024/01/15 00:07:18;;;;;;;34.47;13.75;;;-0.70;99.90;;;;;;5022276;28;20245;-58
2024/01/15 00:09:46;;;;;;;30.52;12.70;;;-0.70;99.90;;;;;;5016645;28;20203;-57
2024/01/15 00:12:14;;;;;;;29.77;13.68;;;-0.80;99.90;;;;;;5022895;28;20222;-59
2024/01/15 00:14:43;;;;;;;30.60;13.32;;;-0.80;99.90;;;;;;5018398;28;20209;-59
2024/01/15 00:17:10;;;;;;;31.95;13.32;;;-0.80;99.90;;;;;;5019938;28;20199;-58
2024/01/15 00:19:40;;;;;;;34.53;14.63;;;-0.80;99.90;;;;;;5023957;28;20703;-60
2024/01/15 00:22:08;;;;;;;34.38;14.02;;;-0.80;99.90;;;;;;5021771;28;20230;-58
2024/01/15 00:24:36;;;;;;;33.58;13.60;;;-0.80;99.90;;;;;;5022394;28;20222;-58
2024/01/15 00:27:04;;;;;;;36.03;13.80;;;-0.80;99.90;;;;;;5015338;28;20222;-59
2024/01/15 00:29:32;;;;;;;27.60;13.55;;;-0.80;99.90;;;;;;5019480;28;20207;-58
2024/01/15 00:32:00;;;;;;;30.60;13.52;;;-0.80;99.90;;;;;;5024347;28;20670;-58
2024/01/15 00:34:28;;;;;;;33.63;13.20;;;-0.80;99.90;;;;;;5021903;28;20204;-58
2024/01/15 00:36:57;;;;;;;38.38;14.20;;;-0.80;99.90;;;;;;5024626;28;20277;-58
2024/01/15 00:39:25;;;;;;;33.33;14.25;;;-0.70;99.90;;;;;;5016774;28;20247;-57
2024/01/15 00:41:53;;;;;;;34.75;14.15;;;-0.70;99.90;;;;;;5017921;28;20711;-58
2024/01/15 00:44:21;;;;;;;35.85;14.32;;;-0.70;99.90;;;;;;5018905;28;20256;-58
2024/01/15 00:46:49;;;;;;;33.30;13.77;;;-0.70;99.90;;;;;;5014111;28;20227;-58
2024/01/15 00:49:17;;;;;;;34.83;13.23;;;-0.80;99.90;;;;;;5019829;28;20668;-58
2024/01/15 00:51:46;;;;;;;31.80;13.43;;;-0.80;99.90;;;;;;5021158;28;20716;-58
2024/01/15 00:54:15;;;;;;;31.75;12.90;;;-0.70;99.90;;;;;;5015088;28;20580;-57
2024/01/15 00:56:43;;;;;;;35.95;13.90;;;-0.70;99.90;;;;;;5021812;28;20321;-58
2024/01/15 00:59:14;;;;;;;38.25;14.30;;;-0.70;99.90;;;;;;5015320;28;20227;-58
2024/01/15 01:01:43;;;;;;;35.15;13.20;;;-0.70;99.90;;;;;;5019456;28;20919;-58
2024/01/15 01:04:11;;;;;;;32.15;13.15;;;-0.70;99.90;;;;;;5022146;28;20213;-57
2024/01/15 01:06:39;;;;;;;33.28;13.75;;;-0.70;99.90;;;;;;5014331;28;20223;-57
2024/01/15 01:09:07;;;;;;;35.22;14.10;;;-0.70;99.90;;;;;;5020473;28;20219;-61
2024/01/15 01:11:36;;;;;;;35.00;14.52;;;-0.70;99.90;;;;;;5018901;28;20648;-57
2024/01/15 01:14:04;;;;;;;35.33;13.45;;;-0.60;99.90;;;;;;5020420;28;20298;-58
2024/01/15 01:16:38;;;;;;;27.70;12.45;;;-0.70;99.90;;;;;;5021223;28;20227;-57
2024/01/15 01:19:07;;;;;;;33.58;13.98;;;-0.60;99.90;;;;;;5018445;28;20211;-59
2024/01/15 01:21:35;;;;;;;31.70;13.02;;;-0.70;99.90;;;;;;5013722;28;20234;-58
2024/01/15 01:24:03;;;;;;;30.77;12.90;;;-0.60;99.90;;;;;;5015519;28;20207;-58
2024/01/15 01:26:31;;;;;;;35.20;14.05;;;-0.60;99.90;;;;;;5013005;28;20754;-60
2024/01/15 01:29:01;;;;;;;31.13;13.07;;;-0.60;99.90;;;;;;5022619;28;20672;-58
2024/01/15 01:31:28;;;;;;;32.10;13.00;;;-0.50;99.90;;;;;;5018064;28;20318;-58
2024/01/15 01:33:57;;;;;;;28.27;12.02;;;-0.40;99.90;;;;;;5020222;28;20217;-57
2024/01/15 01:36:25;;;;;;;28.02;13.00;;;-0.50;99.90;;;;;;5023170;28;20294;-58
2024/01/15 01:38:53;;;;;;;29.65;12.15;;;-0.50;99.90;;;;;;5019501;28;20221;-57
2024/01/15 01:41:20;;;;;;;29.63;12.73;;;-0.50;99.90;;;;;;5017894;28;20270;-59
2024/01/15 01:43:48;;;;;;;27.58;11.68;;;-0.50;99.90;;;;;;5015884;28;20289;-59
2024/01/15 01:46:17;;;;;;;32.00;13.30;;;-0.50;99.90;;;;;;5013264;28;20258;-58
2024/01/15 01:48:45;;;;;;;31.02;12.73;;;-0.60;99.90;;;;;;5016600;28;20273;-57
2024/01/15 01:51:13;;;;;;;29.13;12.40;;;-0.60;99.90;;;;;;5025004;28;20261;-58
2024/01/15 01:53:41;;;;;;;34.90;13.00;;;-0.60;99.90;;;;;;5019636;28;20209;-57
2024/01/15 01:56:09;;;;;;;39.30;13.10;;;-0.60;99.90;;;;;;5021613;28;20203;-58
2024/01/15 01:58:37;;;;;;;32.08;11.95;;;-0.50;99.90;;;;;;5021722;28;20258;-59
2024/01/15 02:01:05;;;;;;;31.48;13.30;;;-0.50;99.90;;;;;;5019484;28;20308;-59
2024/01/15 02:03:34;;;;;;;31.40;11.80;;;-0.50;99.90;;;;;;5024550;28;20245;-59
2024/01/15 02:06:03;;;;;;;32.13;12.55;;;-0.50;99.90;;;;;;5020932;28;20230;-58
2024/01/15 02:08:31;;;;;;;28.83;12.23;;;-0.40;99.90;;;;;;5016305;28;20374;-58
2024/01/15 02:10:58;;;;;;;35.10;13.07;;;-0.40;99.90;;;;;;5016359;28;20273;-57
2024/01/15 02:13:26;;;;;;;35.92;12.45;;;-0.40;99.90;;;;;;5010187;28;20326;-57
2024/01/15 02:15:54;;;;;;;28.77;12.75;;;-0.30;99.90;;;;;;5019536;28;20290;-57
2024/01/15 02:18:22;;;;;;;32.22;11.45;;;-0.30;99.90;;;;;;5012512;28;20199;-58
2024/01/15 02:20:51;;;;;;;34.70;12.90;;;-0.30;99.90;;;;;;5018142;28;20218;-57
2024/01/15 02:23:21;;;;;;;25.00;11.40;;;-0.20;99.90;;;;;;5018226;28;20204;-58
2024/01/15 02:25:50;;;;;;;30.48;12.00;;;-0.20;99.90;;;;;;5022421;28;20301;-57
2024/01/15 02:28:18;;;;;;;25.25;11.93;;;-0.30;99.90;;;;;;5016321;28;20263;-58
2024/01/15 02:30:46;;;;;;;30.13;11.90;;;-0.30;99.90;;;;;;5013807;28;20293;-57
2024/01/15 02:33:14;;;;;;;29.15;12.45;;;-0.30;99.90;;;;;;5018771;28;20222;-59
2024/01/15 02:35:42;;;;;;;28.77;11.98;;;-0.40;99.90;;;;;;5013474;28;20222;-58
2024/01/15 02:38:10;;;;;;;29.58;12.10;;;-0.30;99.90;;;;;;5025580;28;20248;-58
2024/01/15 02:40:39;;;;;;;27.02;12.00;;;-0.40;99.90;;;;;;5021320;28;20246;-58
2024/01/15 02:43:07;;;;;;;28.33;11.15;;;-0.40;99.90;;;;;;5015250;28;20631;-58
2024/01/15 02:45:35;;;;;;;24.10;11.50;;;-0.40;99.90;;;;;;5017935;28;20707;-59
2024/01/15 02:48:03;;;;;;;30.35;12.10;;;-0.40;99.90;;;;;;5019237;28;20228;-59
2024/01/15 02:50:31;;;;;;;30.95;12.77;;;-0.40;99.90;;;;;;5014991;28;20256;-58
2024/01/15 02:52:59;;;;;;;32.70;12.98;;;-0.40;99.90;;;;;;5021323;28;20211;-57
2024/01/15 02:55:29;;;;;;;33.60;12.70;;;-0.40;99.90;;;;;;5019856;28;20265;-57
2024/01/15 02:57:58;;;;;;;24.77;10.68;;;-0.40;99.90;;;;;;5017198;28;20270;-58
2024/01/15 03:00:26;;;;;;;30.63;11.32;;;-0.40;99.90;;;;;;5020520;28;20688;-58
2024/01/15 03:02:54;;;;;;;26.63;10.50;;;-0.40;99.90;;;;;;5022303;28;20271;-59
2024/01/15 03:05:22;;;;;;;29.48;11.10;;;-0.40;99.90;;;;;;5018656;28;20242;-59
2024/01/15 03:07:50;;;;;;;25.45;10.60;;;-0.40;99.90;;;;;;5018531;28;20255;-59
2024/01/15 03:10:18;;;;;;;27.00;11.18;;;-0.40;99.90;;;;;;5018053;28;20203;-58
2024/01/15 03:12:46;;;;;;;23.67;10.40;;;-0.40;99.90;;;;;;5016090;28;20256;-57
2024/01/15 03:15:15;;;;;;;25.50;9.93;;;-0.30;99.90;;;;;;5016236;28;20294;-57
2024/01/15 03:17:43;;;;;;;24.92;10.70;;;-0.30;99.90;;;;;;5015922;28;20273;-58
2024/01/15 03:20:12;;;;;;;24.77;10.32;;;-0.30;99.90;;;;;;5023380;28;20218;-58
2024/01/15 03:22:40;;;;;;;26.90;10.20;;;-0.30;99.90;;;;;;5011810;28;20238;-57
2024/01/15 03:25:08;;;;;;;25.85;10.52;;;-0.30;99.90;;;;;;5019898;28;20207;-57
2024/01/15 03:27:36;;;;;;;25.65;10.93;;;-0.40;99.90;;;;;;5016628;28;20266;-57
2024/01/15 03:30:04;;;;;;;22.10;10.18;;;-0.40;99.90;;;;;;5020453;28;20203;-57
2024/01/15 03:32:34;;;;;;;27.25;10.18;;;-0.40;99.90;;;;;;5012553;28;20227;-59
2024/01/15 03:35:02;;;;;;;26.45;10.75;;;-0.40;99.90;;;;;;5020012;28;20238;-58
2024/01/15 03:37:30;;;;;;;26.38;10.48;;;-0.40;99.90;;;;;;5011565;28;20209;-59
2024/01/15 03:39:58;;;;;;;27.23;10.45;;;-0.40;99.90;;;;;;5022383;28;20198;-57
2024/01/15 03:42:26;;;;;;;28.17;11.00;;;-0.40;99.90;;;;;;5017379;28;20724;-57
2024/01/15 03:44:54;;;;;;;23.85;10.50;;;-0.50;99.90;;;;;;5020583;28;20699;-57
2024/01/15 03:47:22;;;;;;;24.77;10.73;;;-0.50;99.90;;;;;;5016771;28;20210;-58
2024/01/15 03:49:51;;;;;;;20.70;9.52;;;-0.50;99.90;;;;;;5023707;28;20202;-59
2024/01/15 03:52:19;;;;;;;22.73;9.57;;;-0.40;99.90;;;;;;5012478;28;20262;-60
2024/01/15 03:54:47;;;;;;;24.63;10.35;;;-0.30;99.90;;;;;;5018542;28;20206;-58
2024/01/15 03:57:15;;;;;;;25.63;10.18;;;-0.30;99.90;;;;;;5014551;28;20232;-57
2024/01/15 03:59:43;;;;;;;25.73;10.15;;;-0.20;99.90;;;;;;5015472;28;20207;-57
2024/01/15 04:02:11;;;;;;;26.02;10.88;;;-0.30;99.90;;;;;;5021330;28;20229;-57
2024/01/15 04:04:41;;;;;;;28.90;11.35;;;-0.30;99.90;;;;;;5018758;28;20306;-57
2024/01/15 04:07:11;;;;;;;22.40;9.70;;;-0.30;99.90;;;;;;5012830;28;20648;-58
2024/01/15 04:09:39;;;;;;;27.38;9.93;;;-0.30;99.90;;;;;;5011609;28;20245;-58
2024/01/15 04:12:07;;;;;;;24.17;10.35;;;-0.20;99.90;;;;;;5013303;28;20349;-57
2024/01/15 04:14:35;;;;;;;22.80;10.23;;;-0.20;99.90;;;;;;5011503;28;20623;-57
2024/01/15 04:17:03;;;;;;;23.67;10.57;;;-0.30;99.90;;;;;;5016280;28;20207;-57
2024/01/15 04:19:31;;;;;;;25.35;10.50;;;-0.30;99.90;;;;;;5012354;28;20203;-57
2024/01/15 04:21:58;;;;;;;28.80;11.50;;;-0.20;99.90;;;;;;5013778;28;20238;-57
2024/01/15 04:24:27;;;;;;;26.90;11.18;;;-0.20;99.90;;;;;;5018600;28;20629;-58
2024/01/15 04:26:55;;;;;;;24.25;10.88;;;-0.20;99.90;;;;;;5015958;28;20215;-57
2024/01/15 04:29:23;;;;;;;25.20;10.52;;;-0.20;99.90;;;;;;5017266;28;20254;-58
2024/01/15 04:31:51;;;;;;;28.88;11.00;;;-0.20;99.90;;;;;;5012656;28;20282;-57
2024/01/15 04:34:19;;;;;;;25.17;11.00;;;-0.20;99.90;;;;;;5011146;28;20211;-57
2024/01/15 04:36:47;;;;;;;26.38;10.50;;;-0.20;99.90;;;;;;5011720;28;20552;-57
2024/01/15 04:39:15;;;;;;;27.40;11.40;;;-0.20;99.90;;;;;;5012237;28;20665;-57
2024/01/15 04:41:44;;;;;;;29.83;11.32;;;-0.20;99.90;;;;;;5014028;28;20230;-57
2024/01/15 04:44:12;;;;;;;21.38;10.30;;;-0.20;99.90;;;;;;5014818;28;20298;-58
2024/01/15 04:46:40;;;;;;;29.25;10.43;;;-0.20;99.90;;;;;;5022569;28;20266;-59
2024/01/15 04:49:08;;;;;;;26.50;10.95;;;-0.10;99.90;;;;;;5020555;28;20238;-59
2024/01/15 04:51:37;;;;;;;24.52;10.40;;;-0.10;99.90;;;;;;5018676;28;20289;-58
2024/01/15 04:54:05;;;;;;;24.80;10.63;;;-0.10;99.90;;;;;;5019509;28;20204;-57
2024/01/15 04:56:33;;;;;;;24.33;10.85;;;-0.10;99.90;;;;;;5015403;28;20595;-59
2024/01/15 04:59:02;;;;;;;27.30;11.40;;;-0.10;99.90;;;;;;5013535;28;20250;-58
2024/01/15 05:01:32;;;;;;;24.33;10.40;;;-0.10;99.90;;;;;;5018765;28;20322;-57
2024/01/15 05:04:00;;;;;;;18.98;9.93;;;-0.10;99.90;;;;;;5014231;28;20684;-57
2024/01/15 05:06:28;;;;;;;24.63;10.50;;;-0.10;99.90;;;;;;5013779;28;20569;-58
2024/01/15 05:08:56;;;;;;;23.90;10.75;;;-0.10;99.90;;;;;;5015526;28;20223;-57
2024/01/15 05:11:24;;;;;;;22.55;10.45;;;0.00;99.90;;;;;;5013941;28;20227;-58
2024/01/15 05:13:52;;;;;;;25.13;10.68;;;0.00;99.90;;;;;;5014101;28;20200;-57
2024/01/15 05:16:21;;;;;;;22.95;10.93;;;0.00;99.90;;;;;;5012476;28;20295;-57
2024/01/15 05:18:49;;;;;;;28.42;10.63;;;0.10;99.90;;;;;;5005482;28;20760;-57
2024/01/15 05:21:17;;;;;;;25.13;10.65;;;0.10;99.90;;;;;;5010880;28;20305;-57
2024/01/15 05:23:45;;;;;;;23.80;10.88;;;0.00;99.90;;;;;;5008550;28;20735;-57
2024/01/15 05:26:12;;;;;;;27.98;11.07;;;0.00;99.90;;;;;;5005122;28;20235;-57
2024/01/15 05:28:42;;;;;;;25.75;10.85;;;0.00;99.90;;;;;;5014917;28;20255;-57
2024/01/15 05:31:10;;;;;;;25.13;10.30;;;0.00;99.90;;;;;;5018104;28;20250;-58
2024/01/15 05:33:40;;;;;;;23.98;11.00;;;0.00;99.90;;;;;;5005805;28;20243;-57
2024/01/15 05:36:08;;;;;;;27.85;11.38;;;0.10;99.90;;;;;;5015819;28;20226;-58
2024/01/15 05:38:36;;;;;;;23.83;10.60;;;0.10;99.90;;;;;;5013676;28;20219;-57
2024/01/15 05:41:04;;;;;;;26.88;11.38;;;0.10;99.90;;;;;;5017804;28;20280;-58
2024/01/15 05:43:32;;;;;;;28.83;11.32;;;0.10;99.90;;;;;;5015729;28;20208;-58
2024/01/15 05:46:00;;;;;;;28.77;11.25;;;0.00;99.90;;;;;;5013856;28;20254;-59
2024/01/15 05:48:28;;;;;;;28.48;11.63;;;0.00;99.90;;;;;;5013343;28;20210;-58
2024/01/15 05:50:57;;;;;;;27.02;11.43;;;-0.10;99.90;;;;;;5021187;28;20783;-58
2024/01/15 05:53:25;;;;;;;28.92;11.77;;;-0.10;99.90;;;;;;5017181;28;20230;-58
2024/01/15 05:55:54;;;;;;;30.30;12.43;;;-0.20;99.90;;;;;;5020320;28;20257;-57
2024/01/15 05:58:21;;;;;;;29.90;12.00;;;-0.20;99.90;;;;;;5014830;28;20245;-57
2024/01/15 06:00:49;;;;;;;26.77;12.10;;;-0.20;99.90;;;;;;5013538;28;20274;-57
2024/01/15 06:03:18;;;;;;;28.55;11.27;;;-0.10;99.90;;;;;;5015350;28;20331;-57
2024/01/15 06:05:45;;;;;;;27.08;10.55;;;-0.10;99.90;;;;;;5019178;28;20222;-58
2024/01/15 06:08:15;;;;;;;25.30;11.13;;;-0.10;99.90;;;;;;5015447;28;20203;-57
2024/01/15 06:10:43;;;;;;;25.55;10.65;;;-0.10;99.90;;;;;;5014529;28;20276;-58
2024/01/15 06:13:11;;;;;;;26.52;11.40;;;-0.10;99.90;;;;;;5013019;28;20234;-57
2024/01/15 06:15:39;;;;;;;23.33;10.70;;;-0.10;99.90;;;;;;5012723;28;20688;-58
2024/01/15 06:18:07;;;;;;;22.25;10.35;;;-0.20;99.90;;;;;;5013143;28;20576;-57
2024/01/15 06:20:35;;;;;;;26.77;10.95;;;-0.10;99.90;;;;;;5012366;28;20242;-58
2024/01/15 06:23:03;;;;;;;23.25;11.02;;;-0.20;99.90;;;;;;5004198;28;20290;-57
2024/01/15 06:25:33;;;;;;;22.27;10.07;;;-0.10;99.90;;;;;;5016849;28;20211;-59
2024/01/15 06:28:01;;;;;;;21.02;9.98;;;-0.10;99.90;;;;;;5014827;28;20203;-58
2024/01/15 06:30:30;;;;;;;23.25;10.57;;;-0.10;99.90;;;;;;5019421;28;20306;-58
2024/01/15 06:32:58;;;;;;;22.70;10.00;;;-0.10;99.90;;;;;;5012667;28;20262;-57
2024/01/15 06:35:26;;;;;;;24.40;11.07;;;-0.10;99.90;;;;;;5014005;28;20212;-58
2024/01/15 06:37:53;;;;;;;23.75;10.38;;;0.00;99.90;;;;;;5008884;28;20242;-58
2024/01/15 06:40:21;;;;;;;23.88;9.80;;;0.00;99.90;;;;;;5012502;28;20634;-57
2024/01/15 06:42:50;;;;;;;25.65;10.50;;;0.00;99.90;;;;;;5013205;28;20715;-58
2024/01/15 06:45:18;;;;;;;22.65;10.95;;;0.10;99.90;;;;;;5012514;28;20235;-57
2024/01/15 06:47:46;;;;;;;21.70;10.55;;;0.10;99.90;;;;;;5015126;28;20203;-57
2024/01/15 06:50:14;;;;;;;22.80;10.73;;;0.10;99.90;;;;;;5021029;28;20696;-57
2024/01/15 06:52:42;;;;;;;20.33;11.18;;;0.10;99.90;;;;;;5018820;28;20322;-57
2024/01/15 06:55:10;;;;;;;25.67;11.73;;;0.10;99.90;;;;;;5012415;28;20363;-58
2024/01/15 06:57:38;;;;;;;21.83;10.43;;;0.10;99.90;;;;;;5015244;28;20203;-57
2024/01/15 07:00:09;;;;;;;24.73;10.63;;;0.20;99.90;;;;;;5012186;28;20426;-62
2024/01/15 07:02:37;;;;;;;25.65;10.60;;;0.10;99.90;;;;;;5019514;28;20242;-61
2024/01/15 07:05:05;;;;;;;26.63;11.23;;;0.10;99.90;;;;;;5011060;28;20227;-61
2024/01/15 07:07:33;;;;;;;24.33;11.68;;;0.10;99.90;;;;;;5000615;28;20208;-62
2024/01/15 07:10:01;;;;;;;25.95;11.20;;;0.10;99.90;;;;;;5014544;28;20727;-61
2024/01/15 07:12:29;;;;;;;25.13;11.77;;;0.10;99.90;;;;;;5014913;28;20220;-61
2024/01/15 07:14:57;;;;;;;28.15;11.77;;;0.10;99.90;;;;;;5011389;28;20210;-61
2024/01/15 07:17:26;;;;;;;30.15;12.98;;;0.10;99.90;;;;;;5010346;28;20227;-61
2024/01/15 07:19:54;;;;;;;27.15;12.43;;;0.10;99.90;;;;;;5003287;28;20206;-62
2024/01/15 07:22:22;;;;;;;25.77;11.35;;;0.10;99.90;;;;;;5010849;28;20655;-62
2024/01/15 07:24:50;;;;;;;25.75;11.57;;;0.10;99.90;;;;;;5012907;28;20207;-62
2024/01/15 07:27:18;;;;;;;24.65;11.40;;;0.10;99.90;;;;;;5015635;28;20203;-62
2024/01/15 07:29:46;;;;;;;28.05;12.50;;;0.20;99.90;;;;;;5010384;28;20223;-62
2024/01/15 07:32:14;;;;;;;26.45;11.85;;;0.20;99.90;;;;;;5010579;28;20566;-62
2024/01/15 07:34:43;;;;;;;26.90;12.75;;;0.20;99.90;;;;;;5011873;28;20239;-62
2024/01/15 07:37:11;;;;;;;29.67;13.45;;;0.30;99.90;;;;;;5011695;28;20207;-62
2024/01/15 07:39:39;;;;;;;29.55;12.70;;;0.30;99.90;;;;;;5017698;28;20672;-62
2024/01/15 07:42:08;;;;;;;30.55;13.10;;;0.30;99.90;;;;;;5011113;28;20231;-62
2024/01/15 07:44:36;;;;;;;27.33;12.70;;;0.30;99.90;;;;;;5011164;28;20203;-62
2024/01/15 07:47:04;;;;;;;32.65;12.40;;;0.30;99.90;;;;;;5011354;28;20261;-62
2024/01/15 07:49:32;;;;;;;30.25;12.55;;;0.30;99.90;;;;;;5010871;28;20207;-62
2024/01/15 07:52:02;;;;;;;26.00;12.55;;;0.30;99.90;;;;;;5010923;28;20227;-62
2024/01/15 07:54:30;;;;;;;25.20;11.73;;;0.30;99.90;;;;;;5011124;28;20261;-62
2024/01/15 07:56:59;;;;;;;28.20;11.20;;;0.30;99.90;;;;;;5011135;28;20218;-62
2024/01/15 07:59:27;;;;;;;30.05;12.13;;;0.30;99.90;;;;;;5011208;28;20234;-62
2024/01/15 08:01:55;;;;;;;25.40;12.55;;;0.30;99.90;;;;;;5010938;28;20246;-62
2024/01/15 08:04:23;;;;;;;28.70;12.80;;;0.40;99.90;;;;;;5011658;28;20214;-62
2024/01/15 08:06:51;;;;;;;26.48;11.68;;;0.40;99.90;;;;;;5011329;28;20230;-62
2024/01/15 08:09:20;;;;;;;25.17;11.70;;;0.40;99.90;;;;;;5011244;28;20199;-62
2024/01/15 08:11:49;;;;;;;27.55;11.70;;;0.50;99.90;;;;;;5010993;28;20239;-62
2024/01/15 08:14:17;;;;;;;25.77;12.57;;;0.50;99.90;;;;;;5011389;28;20620;-62
2024/01/15 08:16:45;;;;;;;28.88;12.70;;;0.60;99.90;;;;;;5013313;28;20235;-62
2024/01/15 08:19:14;;;;;;;26.10;11.73;;;0.60;99.90;;;;;;5015029;28;20235;-62
2024/01/15 08:21:42;;;;;;;29.05;12.15;;;0.70;99.90;;;;;;5014446;28;20229;-62
2024/01/15 08:24:10;;;;;;;26.08;12.20;;;0.70;99.90;;;;;;5014705;28;20203;-62
2024/01/15 08:26:39;;;;;;;26.55;11.63;;;0.80;99.90;;;;;;5014692;28;20309;-62
2024/01/15 08:29:07;;;;;;;25.85;12.02;;;0.80;99.90;;;;;;5014829;28;20290;-62
2024/01/15 08:31:35;;;;;;;24.92;11.07;;;0.90;99.90;;;;;;5014225;28;20254;-62
2024/01/15 08:34:04;;;;;;;29.70;12.73;;;0.90;99.90;;;;;;5011878;28;20199;-62
2024/01/15 08:36:35;;;;;;;26.45;12.23;;;0.90;99.90;;;;;;5017633;28;20213;-62
2024/01/15 08:39:03;;;;;;;24.33;11.32;;;0.80;99.90;;;;;;5014860;28;20208;-62
2024/01/15 08:41:32;;;;;;;25.50;10.68;;;0.90;99.90;;;;;;5013837;28;20222;-62
2024/01/15 08:44:02;;;;;;;23.52;11.63;;;0.90;99.90;;;;;;5003354;28;20235;-62
2024/01/15 08:46:30;;;;;;;24.23;11.52;;;0.90;99.90;;;;;;5004858;28;20250;-62
2024/01/15 08:48:58;;;;;;;26.25;11.10;;;0.90;99.90;;;;;;5011340;28;20281;-62
2024/01/15 08:51:26;;;;;;;24.38;11.00;;;1.00;99.90;;;;;;5013266;28;20222;-62
2024/01/15 08:53:54;;;;;;;20.75;10.63;;;1.00;99.90;;;;;;5012240;28;20235;-62
2024/01/15 08:56:22;;;;;;;23.15;11.30;;;1.00;99.90;;;;;;5007002;28;20255;-62
2024/01/15 08:58:50;;;;;;;28.35;11.52;;;1.00;99.90;;;;;;5012595;28;20775;-62
2024/01/15 09:01:19;;;;;;;21.52;10.75;;;1.00;99.90;;;;;;5012351;28;20314;-62
2024/01/15 09:03:48;;;;;;;24.55;11.43;;;1.00;99.90;;;;;;5004676;28;20624;-62
2024/01/15 09:06:16;;;;;;;22.08;10.52;;;1.00;99.90;;;;;;5012190;28;20775;-62
2024/01/15 09:08:45;;;;;;;24.40;10.68;;;1.00;99.90;;;;;;5013049;28;20792;-61
2024/01/15 09:11:13;;;;;;;22.25;10.68;;;1.00;99.90;;;;;;5015101;28;20231;-62
2024/01/15 09:13:41;;;;;;;20.40;10.60;;;1.00;99.90;;;;;;5010479;28;20235;-61
2024/01/15 09:16:09;;;;;;;19.38;9.65;;;1.00;99.90;;;;;;5013544;28;20748;-60
2024/01/15 09:18:38;;;;;;;21.90;10.30;;;1.00;99.90;;;;;;5013396;28;20678;-61
2024/01/15 09:21:06;;;;;;;22.73;10.20;;;1.00;99.90;;;;;;5013307;28;20731;-60
2024/01/15 09:23:35;;;;;;;20.63;10.27;;;1.10;99.90;;;;;;5013052;28;20633;-60
2024/01/15 09:26:03;;;;;;;19.13;10.20;;;1.10;99.90;;;;;;5012009;28;20203;-60
2024/01/15 09:28:31;;;;;;;22.38;11.00;;;1.20;99.90;;;;;;5011954;28;20239;-61
2024/01/15 09:30:59;;;;;;;20.17;10.10;;;1.10;99.90;;;;;;5012125;28;20285;-61
2024/01/15 09:33:27;;;;;;;25.25;10.73;;;1.10;99.90;;;;;;5012383;28;20294;-61
2024/01/15 09:35:56;;;;;;;20.33;10.32;;;1.20;99.90;;;;;;5012476;28;20211;-60
2024/01/15 09:38:24;;;;;;;19.50;10.95;;;1.10;99.90;;;;;;5012760;28;20274;-61
2024/01/15 09:40:52;;;;;;;22.48;10.25;;;1.10;99.90;;;;;;5011878;28;20302;-61
2024/01/15 09:43:20;;;;;;;21.58;11.18;;;1.10;99.90;;;;;;5013006;28;20234;-61
2024/01/15 09:45:48;;;;;;;21.45;10.48;;;1.20;99.90;;;;;;5013353;28;20207;-61
2024/01/15 09:48:16;;;;;;;26.40;11.40;;;1.20;99.90;;;;;;5013025;28;20685;-60
2024/01/15 09:50:44;;;;;;;20.30;10.43;;;1.20;99.90;;;;;;5012888;28;20215;-61
2024/01/15 09:53:14;;;;;;;18.85;10.60;;;1.20;99.90;;;;;;5013040;28;20214;-61
2024/01/15 09:55:42;;;;;;;18.08;9.60;;;1.20;99.90;;;;;;5012913;28;20281;-60
2024/01/15 09:58:09;;;;;;;20.90;10.18;;;1.20;99.90;;;;;;5013036;28;20294;-60
2024/01/15 10:00:38;;;;;;;22.60;11.32;;;1.30;99.90;;;;;;5012928;28;20291;-61
2024/01/15 10:03:07;;;;;;;19.30;10.48;;;1.30;99.90;;;;;;5013017;28;20199;-61
2024/01/15 10:05:34;;;;;;;18.98;10.70;;;1.40;99.90;;;;;;5013065;28;20639;-60
2024/01/15 10:08:02;;;;;;;20.52;10.45;;;1.40;99.90;;;;;;5012943;28;20207;-61
2024/01/15 10:10:32;;;;;;;19.67;10.77;;;1.40;99.90;;;;;;5012814;28;20238;-60
2024/01/15 10:13:00;;;;;;;26.10;11.55;;;1.40;99.90;;;;;;5012676;28;20243;-59
2024/01/15 10:15:28;;;;;;;20.40;10.43;;;1.40;99.90;;;;;;5013204;28;20613;-59
2024/01/15 10:17:56;;;;;;;22.83;10.93;;;1.40;99.90;;;;;;5012694;28;20631;-60
2024/01/15 10:20:24;;;;;;;21.48;11.57;;;1.50;99.90;;;;;;5012653;28;20302;-60
2024/01/15 10:22:52;;;;;;;20.85;10.70;;;1.50;99.90;;;;;;5012020;28;20233;-60
2024/01/15 10:25:24;;;;;;;18.67;10.98;;;1.60;99.90;;;;;;5013019;28;20978;-58
2024/01/15 10:28:02;;;;;;;19.30;10.52;;;1.60;99.90;;;;;;5012890;28;20231;-59
2024/01/15 10:30:30;;;;;;;19.50;10.55;;;1.60;99.90;;;;;;5012573;28;20215;-59
2024/01/15 10:32:59;;;;;;;21.90;10.80;;;1.60;99.90;;;;;;5012680;28;20211;-59
2024/01/15 10:35:28;;;;;;;26.85;12.30;;;1.60;99.90;;;;;;5012297;28;20294;-60
2024/01/15 10:37:56;;;;;;;22.83;11.00;;;1.60;99.90;;;;;;5012598;28;20265;-59
2024/01/15 10:40:24;;;;;;;22.00;11.48;;;1.60;99.90;;;;;;5012313;28;20243;-59
2024/01/15 10:42:52;;;;;;;21.13;10.95;;;1.60;99.90;;;;;;5012514;28;20309;-60
2024/01/15 10:45:21;;;;;;;22.23;10.75;;;1.70;99.90;;;;;;5010728;28;20215;-59
2024/01/15 10:47:49;;;;;;;21.38;10.82;;;1.70;99.90;;;;;;5011969;28;20339;-59
2024/01/15 10:50:17;;;;;;;23.38;12.15;;;1.70;99.90;;;;;;5012147;28;20228;-59
2024/01/15 10:52:45;;;;;;;18.42;9.98;;;1.70;99.90;;;;;;5012029;28;20231;-60
2024/01/15 10:55:13;;;;;;;20.23;10.20;;;1.70;99.90;;;;;;5012357;28;20225;-59
2024/01/15 10:57:46;;;;;;;23.17;11.38;;;1.70;99.90;;;;;;5012081;28;20203;-60
2024/01/15 11:00:15;;;;;;;20.63;10.52;;;1.80;99.90;;;;;;5011892;28;20207;-61
2024/01/15 11:02:45;;;;;;;19.80;11.63;;;1.80;99.90;;;;;;5045917;22;20266;-59
2024/01/15 11:05:13;;;;;;;20.02;10.75;;;1.80;99.90;;;;;;5031983;28;20233;-60
2024/01/15 11:07:41;;;;;;;21.95;10.93;;;1.80;99.90;;;;;;5031898;28;20203;-60
2024/01/15 11:10:15;;;;;;;18.15;10.35;;;1.90;99.90;;;;;;5031779;28;20202;-60
2024/01/15 11:12:44;;;;;;;18.70;9.98;;;2.00;99.90;;;;;;5031446;28;20382;-60
2024/01/15 11:15:16;;;;;;;17.65;10.00;;;2.10;99.90;;;;;;5029267;28;20208;-59
2024/01/15 11:18:03;;;;;;;20.45;10.63;;;2.10;99.90;;;;;;5023164;28;20210;-60
2024/01/15 11:20:32;;;;;;;19.25;9.80;;;2.10;99.90;;;;;;5031026;28;20199;-59
2024/01/15 11:23:00;;;;;;;18.17;9.57;;;2.00;99.90;;;;;;5031525;28;20229;-60
2024/01/15 11:25:35;;;;;;;16.58;9.73;;;2.00;99.90;;;;;;5026695;28;20745;-59
2024/01/15 11:28:03;;;;;;;16.70;9.15;;;2.00;99.90;;;;;;5031496;28;20268;-60
2024/01/15 11:30:36;;;;;;;16.45;9.15;;;2.10;99.90;;;;;;5030526;28;20205;-60
2024/01/15 11:33:07;;;;;;;15.88;9.10;;;2.20;99.90;;;;;;5030512;28;20235;-60
2024/01/15 11:35:59;;;;;;;19.20;9.50;;;2.30;99.90;;;;;;5031574;28;20253;-60
2024/01/15 11:38:30;;;;;;;16.85;9.98;;;2.40;99.90;;;;;;5015370;28;20249;-60
2024/01/15 11:40:58;;;;;;;15.00;8.52;;;2.50;99.90;;;;;;5031173;28;20217;-60
2024/01/15 11:43:25;;;;;;;15.25;8.38;;;2.50;99.90;;;;;;5031344;28;20222;-59
2024/01/15 11:45:54;;;;;;;17.25;9.48;;;2.60;99.90;;;;;;5031251;28;20269;-60
2024/01/15 11:48:26;;;;;;;16.75;9.00;;;2.60;99.90;;;;;;5030656;28;20771;-60
2024/01/15 11:50:54;;;;;;;11.85;8.07;;;2.50;99.90;;;;;;5032346;28;20206;-60
2024/01/15 11:53:33;;;;;;;15.55;9.15;;;2.50;99.90;;;;;;5034945;28;20264;-60
2024/01/15 11:56:03;;;;;;;17.08;8.65;;;2.40;99.90;;;;;;5029043;28;20260;-60
2024/01/15 11:58:31;;;;;;;16.85;9.10;;;2.40;99.90;;;;;;5029271;28;20269;-60
2024/01/15 12:00:59;;;;;;;15.35;8.95;;;2.40;99.90;;;;;;5033586;28;20214;-60
2024/01/15 12:03:29;;;;;;;15.40;8.02;;;2.40;99.90;;;;;;5034551;28;20229;-60
2024/01/15 12:05:58;;;;;;;14.73;8.55;;;2.40;99.90;;;;;;5035363;28;20317;-60
2024/01/15 12:08:27;;;;;;;13.27;7.97;;;2.40;99.90;;;;;;5034730;28;20210;-60
2024/01/15 12:10:55;;;;;;;12.57;8.25;;;2.50;99.90;;;;;;5034612;28;20210;-60
2024/01/15 12:13:23;;;;;;;12.07;7.00;;;2.50;99.90;;;;;;5034603;28;20692;-60
2024/01/15 12:15:51;;;;;;;17.00;7.93;;;2.50;99.90;;;;;;5035076;28;20214;-59
2024/01/15 12:18:19;;;;;;;12.68;7.90;;;2.50;99.90;;;;;;5034912;28;20285;-60
2024/01/15 12:20:49;;;;;;;12.93;7.68;;;2.50;99.90;;;;;;5034579;28;20233;-60
2024/01/15 12:23:18;;;;;;;14.65;8.15;;;2.50;99.90;;;;;;5034651;28;20223;-60
2024/01/15 12:25:46;;;;;;;15.23;8.35;;;2.50;99.90;;;;;;5029659;28;20587;-59
2024/01/15 12:28:14;;;;;;;13.23;7.97;;;2.50;99.90;;;;;;5026741;28;20207;-59
2024/01/15 12:30:44;;;;;;;13.73;7.82;;;2.50;99.90;;;;;;5025377;28;20628;-60
2024/01/15 12:33:12;;;;;;;15.18;8.48;;;2.50;99.90;;;;;;5037401;28;20227;-60
2024/01/15 12:35:40;;;;;;;12.45;7.30;;;2.50;99.90;;;;;;5038649;28;20740;-60
2024/01/15 12:38:11;;;;;;;12.18;7.70;;;2.50;99.90;;;;;;5027205;28;20249;-60
2024/01/15 12:40:39;;;;;;;13.73;7.30;;;2.50;99.90;;;;;;5025011;28;20214;-59